Time;durP1;ratioP1;P1;durP2;ratioP2;P2;SDS_P1;SDS_P2;PMS_P1;PMS_P2;Temp;Humidity;BMP_temperature;BMP_pressure;BME280_temperature;BME280_humidity;BME280_pressure;Samples;Min_cycle;Max_cycle;Signal;HPM_P1;HPM_P2
2023/08/13 00:02:53;;;;;;;8.33;4.30;;;21.30;99.90;;;;;;21163857;28;20212;-68
2023/08/13 00:12:55;;;;;;;5.87;4.33;;;21.20;99.90;;;;;;21162663;28;20700;-68
2023/08/13 00:22:56;;;;;;;6.00;5.00;;;21.10;99.90;;;;;;21163507;28;20699;-69
2023/08/13 00:32:58;;;;;;;8.60;4.37;;;21.00;99.90;;;;;;21162547;28;20692;-68
2023/08/13 00:43:00;;;;;;;9.17;4.93;;;20.90;99.90;;;;;;21162064;28;20201;-68
2023/08/13 00:53:04;;;;;;;11.40;4.80;;;20.80;99.90;;;;;;21161660;28;20240;-68
2023/08/13 01:03:07;;;;;;;12.67;4.77;;;20.70;99.90;;;;;;21161476;28;20206;-68
2023/08/13 01:13:18;;;;;;;7.83;4.40;;;20.60;99.90;;;;;;21160659;28;20275;-68
2023/08/13 01:23:19;;;;;;;7.17;4.13;;;20.50;99.90;;;;;;21161448;28;20201;-68
2023/08/13 01:33:27;;;;;;;6.23;4.93;;;20.50;99.90;;;;;;21175636;28;20240;-68
2023/08/13 01:43:29;;;;;;;8.10;4.80;;;20.40;99.90;;;;;;21175007;28;20209;-68
2023/08/13 01:53:31;;;;;;;7.73;4.50;;;20.30;99.90;;;;;;21173609;28;20230;-68
2023/08/13 02:03:33;;;;;;;5.77;4.50;;;20.20;99.90;;;;;;21173324;28;20202;-67
2023/08/13 02:13:34;;;;;;;7.90;4.60;;;20.10;99.90;;;;;;21173052;28;20601;-67
2023/08/13 02:23:36;;;;;;;6.90;4.70;;;20.00;99.90;;;;;;21171734;28;20304;-68
2023/08/13 02:33:38;;;;;;;8.90;4.27;;;20.00;99.90;;;;;;21170950;28;20233;-68
2023/08/13 02:43:54;;;;;;;6.70;4.20;;;19.90;99.90;;;;;;21169936;28;20233;-69
2023/08/13 02:53:56;;;;;;;7.27;4.30;;;19.90;99.90;;;;;;21169358;28;20240;-69
2023/08/13 03:04:00;;;;;;;10.90;5.73;;;19.90;99.90;;;;;;21168496;28;20294;-69
2023/08/13 03:14:02;;;;;;;7.20;4.17;;;19.80;99.90;;;;;;21167672;28;20703;-70
2023/08/13 03:24:04;;;;;;;8.57;4.53;;;19.80;99.90;;;;;;21148955;28;20213;-68
2023/08/13 03:34:06;;;;;;;8.93;4.60;;;19.80;99.90;;;;;;21166837;28;20324;-68
2023/08/13 03:44:07;;;;;;;5.20;4.13;;;19.70;99.90;;;;;;21165071;28;20564;-68
2023/08/13 03:54:09;;;;;;;14.27;4.73;;;19.70;99.90;;;;;;21164059;28;20325;-68
2023/08/13 04:04:11;;;;;;;7.10;4.47;;;19.70;99.90;;;;;;21146199;28;20300;-68
2023/08/13 04:14:13;;;;;;;7.73;4.67;;;19.60;99.90;;;;;;21163350;28;20249;-68
2023/08/13 04:24:14;;;;;;;8.43;4.60;;;19.60;99.90;;;;;;21163350;28;20212;-69
2023/08/13 04:34:16;;;;;;;10.80;5.00;;;21.10;99.90;;;;;;21163880;28;20240;-68
2023/08/13 04:44:18;;;;;;;10.07;5.00;;;19.60;99.90;;;;;;21162565;28;20208;-68
2023/08/13 04:54:19;;;;;;;9.47;4.37;;;19.70;99.90;;;;;;21161806;28;20236;-68
2023/08/13 05:04:21;;;;;;;9.80;5.27;;;19.70;99.90;;;;;;21174489;28;20213;-66
2023/08/13 05:14:23;;;;;;;8.63;5.17;;;19.80;99.90;;;;;;21177060;28;20237;-68
2023/08/13 05:24:25;;;;;;;9.40;4.70;;;19.90;99.90;;;;;;21176641;28;20234;-67
2023/08/13 05:34:27;;;;;;;6.77;4.40;;;19.90;99.90;;;;;;21175778;28;20240;-68
2023/08/13 05:44:28;;;;;;;6.60;4.87;;;19.90;99.90;;;;;;21174725;28;20301;-68
2023/08/13 05:54:30;;;;;;;9.27;4.47;;;20.00;99.90;;;;;;21174101;28;20280;-71
2023/08/13 06:04:35;;;;;;;15.63;5.17;;;20.20;99.90;;;;;;21173845;28;20216;-69
2023/08/13 06:14:37;;;;;;;11.83;4.97;;;20.30;99.90;;;;;;21153521;28;20601;-69
2023/08/13 06:24:39;;;;;;;5.80;4.60;;;20.60;99.90;;;;;;21171631;28;20218;-69
2023/08/13 06:34:40;;;;;;;10.40;5.17;;;20.80;99.90;;;;;;21171197;28;20658;-68
2023/08/13 06:44:43;;;;;;;6.30;4.50;;;21.00;99.90;;;;;;21169897;28;20285;-68
2023/08/13 06:54:45;;;;;;;7.57;4.33;;;21.10;99.90;;;;;;21168845;28;20594;-71
2023/08/13 07:04:47;;;;;;;6.70;3.97;;;21.20;99.90;;;;;;21168244;28;20230;-68
2023/08/13 07:14:48;;;;;;;7.07;4.30;;;21.40;99.90;;;;;;21149560;28;20229;-71
2023/08/13 07:24:50;;;;;;;5.53;3.90;;;21.50;99.90;;;;;;21165524;28;20210;-69
2023/08/13 07:34:52;;;;;;;7.23;3.80;;;21.90;99.90;;;;;;21166059;28;20245;-71
2023/08/13 07:44:54;;;;;;;9.27;5.70;;;22.30;99.90;;;;;;21165285;28;20628;-71
2023/08/13 07:54:55;;;;;;;10.90;5.87;;;22.40;99.90;;;;;;21164864;28;20213;-71
2023/08/13 08:04:57;;;;;;;8.87;6.83;;;22.50;99.90;;;;;;21164515;28;20489;-72
2023/08/13 08:14:59;;;;;;;8.77;5.77;;;22.70;99.90;;;;;;21163465;28;20296;-72
2023/08/13 08:25:05;;;;;;;7.37;4.97;;;23.00;99.90;;;;;;21162934;28;20210;-72
2023/08/13 08:35:07;;;;;;;6.40;5.40;;;23.10;99.90;;;;;;21169074;28;20292;-69
2023/08/13 08:45:10;;;;;;;6.00;5.37;;;23.40;99.90;;;;;;21179283;28;20245;-69
2023/08/13 08:55:13;;;;;;;4.67;4.00;;;23.40;99.90;;;;;;21178901;28;20209;-68
2023/08/13 09:05:16;;;;;;;6.40;4.30;;;23.50;99.90;;;;;;21178372;28;20574;-68
2023/08/13 09:15:18;;;;;;;4.53;3.10;;;23.60;99.90;;;;;;21178091;28;20273;-68
2023/08/13 09:25:20;;;;;;;4.00;2.83;;;23.80;99.90;;;;;;21176392;28;20282;-70
2023/08/13 09:35:22;;;;;;;3.53;2.87;;;24.00;99.90;;;;;;21175963;28;20206;-69
2023/08/13 09:45:28;;;;;;;3.53;2.83;;;24.30;99.90;;;;;;21174211;28;20234;-69
2023/08/13 09:55:34;;;;;;;2.47;2.23;;;24.40;99.90;;;;;;21175422;28;20209;-69
2023/08/13 10:05:38;;;;;;;5.17;4.37;;;24.50;99.90;;;;;;21173591;28;20242;-69
2023/08/13 10:15:42;;;;;;;3.53;2.40;;;24.60;99.10;;;;;;21154316;28;20206;-69
2023/08/13 10:25:44;;;;;;;3.73;3.00;;;24.70;98.10;;;;;;21171687;28;20261;-70
2023/08/13 10:35:57;;;;;;;6.87;3.10;;;24.90;97.10;;;;;;21171193;28;20657;-69
2023/08/13 10:46:02;;;;;;;4.30;2.90;;;25.00;97.20;;;;;;21169932;28;20312;-69
2023/08/13 10:56:04;;;;;;;3.63;2.70;;;25.10;97.10;;;;;;21151506;28;20210;-71
2023/08/13 11:06:07;;;;;;;6.60;2.97;;;25.30;96.90;;;;;;21169212;28;20333;-73
2023/08/13 11:16:08;;;;;;;4.60;2.60;;;25.40;96.60;;;;;;21167629;28;20285;-72
2023/08/13 11:26:11;;;;;;;3.33;2.60;;;25.40;96.20;;;;;;21166764;28;20237;-72
2023/08/13 11:36:13;;;;;;;2.90;2.00;;;25.50;96.00;;;;;;21166874;28;20288;-72
2023/08/13 11:46:14;;;;;;;3.60;2.27;;;25.60;95.30;;;;;;21165738;28;20321;-72
2023/08/13 11:56:18;;;;;;;3.10;1.80;;;25.60;95.10;;;;;;21165740;28;20214;-72
2023/08/13 12:06:21;;;;;;;2.28;1.85;;;25.70;95.20;;;;;;21164007;28;20234;-73
2023/08/13 12:16:23;;;;;;;3.22;1.85;;;25.90;95.10;;;;;;21164561;28;20580;-73
2023/08/13 12:26:26;;;;;;;2.47;1.83;;;26.00;94.60;;;;;;21164106;28;20650;-71
2023/08/13 12:36:27;;;;;;;2.80;1.57;;;26.00;94.20;;;;;;21164952;28;20603;-71
2023/08/13 12:46:29;;;;;;;2.92;1.98;;;26.10;94.00;;;;;;21164265;28;20238;-69
2023/08/13 12:56:31;;;;;;;2.40;2.00;;;26.20;93.60;;;;;;21161841;28;20202;-72
2023/08/13 13:06:32;;;;;;;2.30;1.98;;;26.30;93.40;;;;;;21161040;28;20324;-72
2023/08/13 13:16:34;;;;;;;3.13;2.30;;;26.50;92.90;;;;;;21161448;28;20214;-72
2023/08/13 13:26:36;;;;;;;2.63;1.77;;;26.30;93.10;;;;;;21172843;28;20237;-69
2023/08/13 13:36:38;;;;;;;2.63;1.80;;;26.10;93.40;;;;;;21175579;28;20229;-72
2023/08/13 13:46:40;;;;;;;2.65;1.67;;;26.20;93.00;;;;;;21175136;28;20316;-72
2023/08/13 13:56:41;;;;;;;3.22;1.77;;;26.40;92.70;;;;;;21173975;28;20604;-73
2023/08/13 14:06:43;;;;;;;2.47;1.85;;;26.80;92.40;;;;;;21155643;28;20723;-71
2023/08/13 14:16:45;;;;;;;1.67;1.58;;;27.50;91.70;;;;;;21172988;28;20661;-72
2023/08/13 14:26:49;;;;;;;3.25;1.63;;;28.40;87.80;;;;;;21171543;28;20217;-72
2023/08/13 14:36:51;;;;;;;2.92;1.45;;;28.00;88.80;;;;;;21170357;28;20246;-70
2023/08/13 14:46:52;;;;;;;1.45;1.35;;;28.80;84.00;;;;;;21170221;28;20233;-69
2023/08/13 14:56:54;;;;;;;2.00;1.40;;;28.40;82.30;;;;;;21169128;28;20206;-70
2023/08/13 15:06:56;;;;;;;1.35;1.25;;;28.50;82.30;;;;;;21168367;28;20265;-74
2023/08/13 15:16:58;;;;;;;1.50;1.40;;;31.70;72.00;;;;;;21169066;28;20202;-72
2023/08/13 15:26:59;;;;;;;1.50;1.40;;;29.10;75.70;;;;;;21166721;28;20276;-72
2023/08/13 15:37:01;;;;;;;4.80;2.08;;;28.00;78.50;;;;;;21166384;28;20209;-71
2023/08/13 15:47:03;;;;;;;2.05;1.85;;;27.50;79.20;;;;;;21164628;28;20241;-73
2023/08/13 15:57:05;;;;;;;4.63;1.95;;;27.40;80.30;;;;;;21164565;28;20573;-73
2023/08/13 16:07:07;;;;;;;3.78;1.83;;;27.30;80.60;;;;;;21163939;28;20337;-73
2023/08/13 16:17:09;;;;;;;2.70;2.00;;;27.00;81.60;;;;;;21163660;28;20234;-71
2023/08/13 16:27:10;;;;;;;3.15;1.85;;;26.80;83.00;;;;;;21162821;28;20226;-72
2023/08/13 16:37:13;;;;;;;3.70;2.58;;;26.80;83.40;;;;;;21162727;28;20304;-73
2023/08/13 16:47:18;;;;;;;2.85;2.28;;;26.70;83.70;;;;;;21162341;28;20257;-72
2023/08/13 16:57:20;;;;;;;3.33;1.97;;;26.60;84.20;;;;;;21169620;28;20198;-71
2023/08/13 17:07:22;;;;;;;4.50;1.97;;;26.50;85.50;;;;;;21177471;28;20244;-72
2023/08/13 17:17:24;;;;;;;3.37;2.00;;;26.30;86.50;;;;;;21177895;28;20252;-73
2023/08/13 17:27:25;;;;;;;4.10;2.17;;;26.00;88.10;;;;;;21176755;28;20306;-73
2023/08/13 17:37:27;;;;;;;3.00;1.90;;;25.80;89.50;;;;;;21176178;28;20293;-71
2023/08/13 17:47:29;;;;;;;4.20;2.30;;;25.70;90.20;;;;;;21175387;28;20265;-72
2023/08/13 17:57:31;;;;;;;3.77;1.87;;;25.50;91.20;;;;;;21174588;28;20642;-73
2023/08/13 18:07:32;;;;;;;3.07;2.10;;;25.50;91.40;;;;;;21173514;28;20618;-72
2023/08/13 18:17:34;;;;;;;4.17;2.00;;;25.40;91.70;;;;;;21172960;28;20688;-72
2023/08/13 18:27:36;;;;;;;4.33;2.40;;;25.30;91.80;;;;;;21171773;28;20225;-70
2023/08/13 18:37:38;;;;;;;5.27;2.50;;;25.10;92.10;;;;;;21191859;27;20288;-69
2023/08/13 18:47:39;;;;;;;6.43;3.83;;;25.00;92.20;;;;;;21171575;27;20232;-75
2023/08/13 18:57:41;;;;;;;3.10;2.20;;;24.70;92.40;;;;;;21253166;27;20201;-76
2023/08/13 19:07:43;;;;;;;5.20;2.80;;;24.50;93.10;;;;;;21223326;27;20234;-75
2023/08/13 19:17:45;;;;;;;6.60;2.93;;;24.30;93.70;;;;;;21167701;28;20679;-74
2023/08/13 19:27:47;;;;;;;5.70;2.40;;;24.20;94.40;;;;;;21166243;28;20251;-72
2023/08/13 19:37:48;;;;;;;4.43;2.50;;;23.90;95.20;;;;;;21166280;28;20209;-73
2023/08/13 19:47:52;;;;;;;4.10;2.40;;;23.80;96.00;;;;;;21245536;27;20312;-75
2023/08/13 19:57:57;;;;;;;4.60;2.50;;;23.50;97.00;;;;;;21249601;27;20614;-72
2023/08/13 20:07:59;;;;;;;3.80;2.40;;;23.30;98.20;;;;;;21248808;27;20320;-66
2023/08/13 20:18:00;;;;;;;4.23;2.50;;;23.10;98.80;;;;;;21249042;27;20284;-68
2023/08/13 20:28:02;;;;;;;5.73;2.40;;;23.00;99.60;;;;;;21250003;27;20232;-65
2023/08/13 20:38:04;;;;;;;8.73;2.23;;;22.90;99.90;;;;;;21267899;27;20234;-65
2023/08/13 20:48:07;;;;;;;6.00;2.83;;;22.80;99.90;;;;;;21236057;27;20315;-67
2023/08/13 20:58:09;;;;;;;8.90;3.10;;;22.70;99.90;;;;;;21237828;27;20206;-71
2023/08/13 21:08:11;;;;;;;11.03;2.90;;;22.50;99.90;;;;;;21190502;28;20310;-67
2023/08/13 21:18:13;;;;;;;7.00;2.60;;;22.50;99.90;;;;;;21255128;27;20662;-67
2023/08/13 21:28:14;;;;;;;6.63;2.90;;;22.40;99.90;;;;;;21274172;27;20260;-65
2023/08/13 21:38:16;;;;;;;3.60;2.60;;;22.40;99.90;;;;;;21273844;27;20201;-68
2023/08/13 21:48:18;;;;;;;4.80;2.37;;;22.10;99.90;;;;;;21229099;27;20748;-70
2023/08/13 21:58:20;;;;;;;4.50;2.73;;;22.10;99.90;;;;;;21174142;28;20221;-71
2023/08/13 22:08:23;;;;;;;6.00;2.70;;;22.00;99.90;;;;;;21171836;28;20240;-69
2023/08/13 22:18:28;;;;;;;4.07;2.70;;;21.90;99.90;;;;;;21166021;28;20511;-69
2023/08/13 22:28:30;;;;;;;4.03;2.53;;;22.40;99.90;;;;;;21171529;28;20320;-69
2023/08/13 22:38:31;;;;;;;6.07;2.60;;;21.80;99.90;;;;;;21170902;28;20677;-70
2023/08/13 22:48:33;;;;;;;4.07;2.80;;;21.70;99.90;;;;;;21170460;28;20229;-70
2023/08/13 22:58:35;;;;;;;3.70;2.97;;;21.60;99.90;;;;;;21169027;28;20202;-68
2023/08/13 23:08:37;;;;;;;11.07;3.37;;;21.60;99.90;;;;;;21168486;28;20661;-74
2023/08/13 23:18:38;;;;;;;6.40;3.13;;;21.60;99.90;;;;;;21168428;28;20292;-68
2023/08/13 23:28:40;;;;;;;8.10;2.80;;;21.50;99.90;;;;;;21166775;28;20280;-68
2023/08/13 23:38:42;;;;;;;6.80;3.10;;;21.40;99.90;;;;;;21166391;28;20566;-66
2023/08/13 23:48:44;;;;;;;7.23;2.90;;;21.40;99.90;;;;;;21166277;28;20240;-71
2023/08/13 23:58:46;;;;;;;4.50;2.67;;;21.40;99.90;;;;;;21164683;28;20569;-70
